createdAt,value
2023-03-20T00:00:31.702Z,95878.75
2023-03-20T00:02:59.223Z,95874.50
2023-03-20T00:05:28.417Z,95875.13
2023-03-20T00:07:56.497Z,95876.09
2023-03-20T00:10:30.892Z,95879.16
2023-03-20T00:12:59.494Z,95880.13
2023-03-20T00:15:31.132Z,95879.72
2023-03-20T00:17:59.152Z,95885.56
2023-03-20T00:20:26.674Z,95888.00
2023-03-20T00:22:54.493Z,95889.16
2023-03-20T00:25:24.820Z,95887.16
2023-03-20T00:27:52.476Z,95885.75
2023-03-20T00:30:26.013Z,95886.34
2023-03-20T00:32:53.731Z,95888.16
2023-03-20T00:35:25.078Z,95889.78
2023-03-20T00:37:53.515Z,95885.13
2023-03-20T00:40:21.414Z,95886.16
2023-03-20T00:42:55.693Z,95887.34
2023-03-20T00:45:24.586Z,95896.41
2023-03-20T00:47:52.713Z,95890.38
2023-03-20T00:50:23.058Z,95881.69
2023-03-20T00:52:51.493Z,95883.91
2023-03-20T00:55:20.909Z,95881.09
2023-03-20T00:57:52.332Z,95880.25
2023-03-20T01:00:37.893Z,95877.44
2023-03-20T01:03:14.416Z,95872.59
2023-03-20T01:05:41.902Z,95869.97
2023-03-20T01:08:18.155Z,95864.94
2023-03-20T01:10:47.273Z,95866.72
2023-03-20T01:13:21.473Z,95862.47
2023-03-20T01:15:52.644Z,95866.94
2023-03-20T01:18:21.349Z,95866.94
2023-03-20T01:20:49.228Z,95863.28
2023-03-20T01:23:16.972Z,95862.47
2023-03-20T01:25:44.444Z,95863.69
2023-03-20T01:28:16.026Z,95859.25
2023-03-20T01:30:43.315Z,95854.63
2023-03-20T01:33:18.259Z,95858.22
2023-03-20T01:35:47.327Z,95855.41
2023-03-20T01:38:19.525Z,95850.16
2023-03-20T01:40:55.323Z,95849.53
2023-03-20T01:43:24.383Z,95852.56
2023-03-20T01:46:03.563Z,95849.69
2023-03-20T01:49:04.963Z,95851.69
2023-03-20T01:51:33.041Z,95854.94
2023-03-20T01:54:05.342Z,95852.50
2023-03-20T01:56:37.742Z,95856.75
2023-03-20T01:59:10.543Z,95853.13
2023-03-20T02:01:39.242Z,95858.13
2023-03-20T02:04:08.202Z,95856.63
2023-03-20T02:06:38.110Z,95846.59
2023-03-20T02:09:05.450Z,95848.91
2023-03-20T02:11:34.044Z,95851.72
2023-03-20T02:14:02.678Z,95852.03
2023-03-20T02:16:29.945Z,95853.34
2023-03-20T02:18:58.981Z,95839.56
2023-03-20T02:22:03.357Z,95849.63
2023-03-20T02:25:06.237Z,95857.53
2023-03-20T02:27:44.681Z,95852.91
2023-03-20T02:30:47.270Z,95852.06
2023-03-20T02:34:05.087Z,95858.75
2023-03-20T02:37:29.411Z,95864.72
2023-03-20T02:40:15.275Z,95869.84
2023-03-20T02:42:52.363Z,95864.53
2023-03-20T02:45:28.355Z,95862.47
2023-03-20T02:48:13.355Z,95860.06
2023-03-20T02:50:50.081Z,95861.41
2023-03-20T02:53:31.295Z,95857.38
2023-03-20T02:56:12.561Z,95860.22
2023-03-20T02:58:49.550Z,95864.69
2023-03-20T03:01:22.883Z,95872.28
2023-03-20T03:03:56.416Z,95864.75
2023-03-20T03:06:27.855Z,95867.16
2023-03-20T03:09:01.430Z,95867.03
2023-03-20T03:11:32.742Z,95872.25
2023-03-20T03:14:02.152Z,95873.03
2023-03-20T03:16:34.273Z,95870.81
2023-03-20T03:19:08.850Z,95877.69
2023-03-20T03:21:39.473Z,95862.13
2023-03-20T03:24:21.717Z,95867.94
2023-03-20T03:26:53.909Z,95865.72
2023-03-20T03:29:24.869Z,95866.72
2023-03-20T03:31:53.110Z,95863.28
2023-03-20T03:34:23.714Z,95860.28
2023-03-20T03:37:00.956Z,95859.84
2023-03-20T03:39:39.835Z,95865.78
2023-03-20T03:42:24.311Z,95859.66
2023-03-20T03:44:58.791Z,95853.59
2023-03-20T03:47:33.132Z,95850.97
2023-03-20T03:50:06.156Z,95853.25
2023-03-20T03:52:36.550Z,95858.13
2023-03-20T03:55:09.053Z,95855.53
2023-03-20T03:57:45.468Z,95859.97
2023-03-20T04:00:18.371Z,95862.94
2023-03-20T04:02:51.210Z,95871.22
2023-03-20T04:05:21.509Z,95872.72
2023-03-20T04:07:54.325Z,95870.50
2023-03-20T04:10:22.066Z,95870.50
2023-03-20T04:12:50.905Z,95866.03
2023-03-20T04:15:18.618Z,95857.78
2023-03-20T04:17:45.802Z,95864.69
2023-03-20T04:20:14.540Z,95865.47
2023-03-20T04:22:41.797Z,95868.06
2023-03-20T04:25:15.210Z,95876.38
2023-03-20T04:27:42.361Z,95874.94
2023-03-20T04:30:12.961Z,95869.84
2023-03-20T04:32:40.203Z,95869.66
2023-03-20T04:35:09.000Z,95857.94
2023-03-20T04:37:36.524Z,95859.81
2023-03-20T04:40:04.339Z,95872.97
2023-03-20T04:42:31.539Z,95869.16
2023-03-20T04:44:58.642Z,95873.41
2023-03-20T04:47:27.478Z,95868.53
2023-03-20T04:49:54.618Z,95872.97
2023-03-20T04:52:21.740Z,95870.75
2023-03-20T04:54:49.020Z,95878.22
2023-03-20T04:57:16.187Z,95882.50
2023-03-20T04:59:43.693Z,95881.09
2023-03-20T05:02:10.886Z,95884.31
2023-03-20T05:04:39.709Z,95880.25
2023-03-20T05:07:06.907Z,95886.91
2023-03-20T05:09:34.019Z,95890.13
2023-03-20T05:12:01.378Z,95887.69
2023-03-20T05:14:28.485Z,95888.31
2023-03-20T05:16:55.610Z,95881.84
2023-03-20T05:19:22.784Z,95873.34
2023-03-20T05:21:51.487Z,95869.28
2023-03-20T05:24:18.766Z,95861.03
2023-03-20T05:26:45.879Z,95858.63
2023-03-20T05:29:13.054Z,95851.13
2023-03-20T05:31:40.253Z,95862.06
2023-03-20T05:34:07.368Z,95860.69
2023-03-20T05:36:34.473Z,95855.00
2023-03-20T05:39:03.117Z,95858.84
2023-03-20T05:41:30.441Z,95863.78
2023-03-20T05:43:57.556Z,95859.34
2023-03-20T05:46:25.037Z,95857.75
2023-03-20T05:48:52.665Z,95863.63
2023-03-20T05:51:19.726Z,95861.59
2023-03-20T05:53:46.862Z,95872.69
2023-03-20T05:56:15.470Z,95875.13
2023-03-20T05:58:42.555Z,95867.19
2023-03-20T06:01:09.777Z,95875.94
2023-03-20T06:03:37.197Z,95874.28
2023-03-20T06:06:05.392Z,95872.47
2023-03-20T06:08:32.690Z,95869.63
2023-03-20T06:10:59.945Z,95875.88
2023-03-20T06:13:28.505Z,95879.94
2023-03-20T06:15:56.007Z,95882.34
2023-03-20T06:18:23.787Z,95888.22
2023-03-20T06:20:53.228Z,95886.94
2023-03-20T06:23:21.293Z,95883.50
2023-03-20T06:25:49.049Z,95878.22
2023-03-20T06:28:16.426Z,95884.94
2023-03-20T06:30:45.091Z,95877.03
2023-03-20T06:33:12.358Z,95868.91
2023-03-20T06:35:39.923Z,95879.22
2023-03-20T06:38:07.526Z,95881.84
2023-03-20T06:40:34.748Z,95883.28
2023-03-20T06:43:01.922Z,95872.75
2023-03-20T06:45:29.086Z,95875.34
2023-03-20T06:47:57.932Z,95877.56
2023-03-20T06:50:25.197Z,95877.56
2023-03-20T06:52:52.584Z,95878.59
2023-03-20T06:55:19.772Z,95874.88
2023-03-20T06:57:46.946Z,95882.34
2023-03-20T07:00:15.471Z,95885.34
2023-03-20T07:02:42.812Z,95876.81
2023-03-20T07:05:11.875Z,95890.81
2023-03-20T07:07:39.052Z,95888.38
2023-03-20T07:10:07.731Z,95895.84
2023-03-20T07:12:34.973Z,95882.94
2023-03-20T07:15:02.193Z,95892.63
2023-03-20T07:17:29.344Z,95885.56
2023-03-20T07:19:56.420Z,95884.34
2023-03-20T07:22:27.026Z,95882.53
2023-03-20T07:24:54.273Z,95881.09
2023-03-20T07:27:21.884Z,95884.19
2023-03-20T07:29:49.343Z,95885.94
2023-03-20T07:32:16.510Z,95888.63
2023-03-20T07:34:44.049Z,95893.81
2023-03-20T07:37:11.266Z,95890.66
2023-03-20T07:39:39.925Z,95894.16
2023-03-20T07:42:07.229Z,95890.31
2023-03-20T07:44:34.428Z,95890.47
2023-03-20T07:47:01.770Z,95892.94
2023-03-20T07:49:29.143Z,95889.44
2023-03-20T07:51:56.299Z,95896.84
2023-03-20T07:54:23.814Z,95899.50
2023-03-20T07:56:53.506Z,95904.47
2023-03-20T07:59:20.673Z,95901.47
2023-03-20T08:01:47.874Z,95896.63
2023-03-20T08:04:15.015Z,95903.34
2023-03-20T08:06:42.382Z,95913.34
2023-03-20T08:09:09.642Z,95912.09
2023-03-20T08:11:36.769Z,95920.25
2023-03-20T08:14:05.545Z,95928.47
2023-03-20T08:16:33.312Z,95932.56
2023-03-20T08:19:00.636Z,95932.78
2023-03-20T08:21:28.142Z,95936.88
2023-03-20T08:23:55.603Z,95942.19
2023-03-20T08:26:23.480Z,95935.22
2023-03-20T08:28:52.506Z,95935.94
2023-03-20T08:31:21.483Z,95941.88
2023-03-20T08:33:49.168Z,95947.91
2023-03-20T08:36:17.484Z,95946.94
2023-03-20T08:38:44.768Z,95952.09
2023-03-20T08:41:12.400Z,95944.44
2023-03-20T08:43:39.853Z,95932.00
2023-03-20T08:46:07.524Z,95943.22
2023-03-20T08:48:36.665Z,95939.88
2023-03-20T08:51:04.568Z,95937.84
2023-03-20T08:53:31.846Z,95932.09
2023-03-20T08:55:59.311Z,95929.53
2023-03-20T08:58:26.628Z,95930.00
2023-03-20T09:00:53.821Z,95924.03
2023-03-20T09:03:21.672Z,95924.78
2023-03-20T09:05:51.744Z,95925.03
2023-03-20T09:08:19.561Z,95931.44
2023-03-20T09:10:49.825Z,95935.44
2023-03-20T09:13:26.727Z,95929.38
2023-03-20T09:15:56.511Z,95930.72
2023-03-20T09:18:24.898Z,95941.84
2023-03-20T09:20:53.838Z,95940.53
2023-03-20T09:23:20.983Z,95937.88
2023-03-20T09:25:48.119Z,95936.84
2023-03-20T09:28:15.337Z,95930.19
2023-03-20T09:30:42.722Z,95932.53
2023-03-20T09:33:10.205Z,95936.34
2023-03-20T09:35:37.753Z,95931.28
2023-03-20T09:38:06.661Z,95937.22
2023-03-20T09:40:50.048Z,95941.53
2023-03-20T09:43:29.062Z,95948.22
2023-03-20T09:46:09.666Z,95952.94
2023-03-20T09:48:47.568Z,95951.66
2023-03-20T09:51:26.661Z,95959.72
2023-03-20T09:54:01.345Z,95945.88
2023-03-20T09:56:31.516Z,95951.31
2023-03-20T09:59:01.728Z,95953.72
2023-03-20T10:01:39.560Z,95954.06
2023-03-20T10:04:10.338Z,95950.69
2023-03-20T10:06:38.383Z,95943.47
2023-03-20T10:09:17.285Z,95953.00
2023-03-20T10:12:14.421Z,95949.75
2023-03-20T10:14:53.989Z,95949.34
2023-03-20T10:17:35.537Z,95948.19
2023-03-20T10:20:13.199Z,95948.75
2023-03-20T10:22:45.718Z,95954.72
2023-03-20T10:25:26.629Z,95952.88
2023-03-20T10:27:59.774Z,95948.31
2023-03-20T10:30:46.593Z,95958.31
2023-03-20T10:33:28.716Z,95956.16
2023-03-20T10:36:10.241Z,95961.22
2023-03-20T10:38:46.866Z,95967.78
2023-03-20T10:41:19.784Z,95970.06
2023-03-20T10:43:51.256Z,95960.22
2023-03-20T10:46:25.847Z,95958.59
2023-03-20T10:49:02.014Z,95962.00
2023-03-20T10:51:42.177Z,95959.47
2023-03-20T10:54:23.110Z,95955.22
2023-03-20T10:56:55.667Z,95961.13
2023-03-20T10:59:26.401Z,95957.78
2023-03-20T11:01:53.884Z,95951.78
2023-03-20T11:04:21.210Z,95946.25
2023-03-20T11:06:59.998Z,95945.19
2023-03-20T11:09:27.973Z,95939.31
2023-03-20T11:12:00.052Z,95946.00
2023-03-20T11:14:34.528Z,95946.25
2023-03-20T11:17:04.492Z,95949.66
2023-03-20T11:19:34.995Z,95945.81
2023-03-20T11:22:20.166Z,95952.50
2023-03-20T11:24:56.256Z,95943.66
2023-03-20T11:27:29.219Z,95944.19
2023-03-20T11:30:00.682Z,95943.06
2023-03-20T11:32:31.195Z,95945.03
2023-03-20T11:35:11.712Z,95948.59
2023-03-20T11:37:46.078Z,95944.38
2023-03-20T11:40:17.381Z,95946.94
2023-03-20T11:42:57.853Z,95949.94
2023-03-20T11:45:26.074Z,95948.91
2023-03-20T11:47:56.988Z,95949.72
2023-03-20T11:50:32.784Z,95950.88
2023-03-20T11:53:02.105Z,95951.00
2023-03-20T11:55:33.368Z,95954.00
2023-03-20T11:58:05.917Z,95953.41
2023-03-20T12:00:38.879Z,95947.63
2023-03-20T12:03:44.166Z,95949.44
2023-03-20T12:06:17.414Z,95954.28
2023-03-20T12:08:52.567Z,95941.78
2023-03-20T12:11:49.377Z,95939.31
2023-03-20T12:14:27.839Z,95949.09
2023-03-20T12:17:10.432Z,95931.25
2023-03-20T12:19:42.237Z,95938.03
2023-03-20T12:22:22.886Z,95932.97
2023-03-20T12:25:01.450Z,95930.69
2023-03-20T12:27:34.843Z,95928.03
2023-03-20T12:30:13.373Z,95929.09
2023-03-20T12:32:49.027Z,95931.81
2023-03-20T12:35:24.631Z,95928.94
2023-03-20T12:37:52.456Z,95933.44
2023-03-20T12:40:27.802Z,95916.53
2023-03-20T12:43:05.530Z,95913.97
2023-03-20T12:45:39.872Z,95908.69
2023-03-20T12:48:27.593Z,95904.41
2023-03-20T12:51:04.095Z,95901.06
2023-03-20T12:53:47.414Z,95905.44
2023-03-20T12:56:29.318Z,95903.44
2023-03-20T12:59:10.053Z,95909.38
2023-03-20T13:01:49.948Z,95901.88
2023-03-20T13:04:41.922Z,95898.38
2023-03-20T13:07:18.933Z,95889.34
2023-03-20T13:10:02.687Z,95893.25
2023-03-20T13:12:40.274Z,95875.59
2023-03-20T13:15:31.878Z,95867.31
2023-03-20T13:18:09.713Z,95862.56
2023-03-20T13:20:46.822Z,95855.94
2023-03-20T13:23:23.539Z,95857.78
2023-03-20T13:26:08.495Z,95855.69
2023-03-20T13:28:49.382Z,95857.56
2023-03-20T13:31:31.220Z,95846.97
2023-03-20T13:34:12.874Z,95838.91
2023-03-20T13:36:56.545Z,95838.34
2023-03-20T13:39:31.431Z,95830.97
2023-03-20T13:42:04.228Z,95837.09
2023-03-20T13:44:34.872Z,95829.00
2023-03-20T13:47:10.579Z,95832.78
2023-03-20T13:49:52.953Z,95829.91
2023-03-20T13:52:26.413Z,95831.19
2023-03-20T13:55:13.929Z,95827.28
2023-03-20T13:58:07.155Z,95837.53
2023-03-20T14:00:43.158Z,95824.97
2023-03-20T14:03:27.748Z,95830.63
2023-03-20T14:05:56.612Z,95828.09
2023-03-20T14:08:32.622Z,95823.28
2023-03-20T14:11:25.829Z,95816.28
2023-03-20T14:13:58.070Z,95819.13
2023-03-20T14:16:29.190Z,95812.91
2023-03-20T14:19:08.831Z,95816.03
2023-03-20T14:21:37.768Z,95807.13
2023-03-20T14:24:13.508Z,95804.06
2023-03-20T14:26:42.446Z,95810.50
2023-03-20T14:29:35.134Z,95809.59
2023-03-20T14:32:23.951Z,95809.69
2023-03-20T14:34:53.750Z,95811.09
2023-03-20T14:37:35.689Z,95807.44
2023-03-20T14:40:15.090Z,95799.97
2023-03-20T14:42:52.907Z,95808.22
2023-03-20T14:45:35.890Z,95805.81
2023-03-20T14:48:16.000Z,95809.47
2023-03-20T14:51:06.527Z,95808.59
2023-03-20T14:53:35.429Z,95804.38
2023-03-20T14:56:09.034Z,95797.75
2023-03-20T14:58:48.464Z,95777.31
2023-03-20T15:01:24.135Z,95782.09
2023-03-20T15:03:57.949Z,95792.81
2023-03-20T15:06:28.568Z,95791.63
2023-03-20T15:09:04.976Z,95798.84
2023-03-20T15:11:35.007Z,95788.13
2023-03-20T15:14:06.797Z,95791.22
2023-03-20T15:16:36.907Z,95782.66
2023-03-20T15:19:15.273Z,95784.59
2023-03-20T15:21:45.616Z,95794.97
2023-03-20T15:24:21.129Z,95789.59
2023-03-20T15:26:54.466Z,95788.22
2023-03-20T15:29:23.312Z,95792.56
2023-03-20T15:32:12.331Z,95789.44
2023-03-20T15:34:42.495Z,95784.91
2023-03-20T15:37:15.464Z,95787.06
2023-03-20T15:39:45.829Z,95788.50
2023-03-20T15:42:16.004Z,95789.16
2023-03-20T15:44:45.964Z,95790.81
2023-03-20T15:47:16.067Z,95780.56
2023-03-20T15:49:43.597Z,95786.22
2023-03-20T15:52:31.324Z,95782.91
2023-03-20T15:55:05.488Z,95785.78
2023-03-20T15:57:36.633Z,95781.66
2023-03-20T16:00:07.553Z,95780.16
2023-03-20T16:02:37.575Z,95781.75
2023-03-20T16:05:13.108Z,95785.31
2023-03-20T16:07:41.570Z,95786.13
2023-03-20T16:10:22.637Z,95777.03
2023-03-20T16:12:52.053Z,95776.09
2023-03-20T16:15:20.858Z,95773.19
2023-03-20T16:17:52.407Z,95765.81
2023-03-20T16:20:21.069Z,95780.06
2023-03-20T16:22:51.080Z,95773.03
2023-03-20T16:25:20.370Z,95775.53
2023-03-20T16:27:52.133Z,95771.34
2023-03-20T16:30:25.220Z,95771.72
2023-03-20T16:32:58.980Z,95779.44
2023-03-20T16:35:30.998Z,95775.41
2023-03-20T16:38:00.497Z,95779.78
2023-03-20T16:40:36.515Z,95784.88
2023-03-20T16:43:06.967Z,95778.00
2023-03-20T16:45:35.804Z,95785.44
2023-03-20T16:48:24.217Z,95786.09
2023-03-20T16:50:59.123Z,95784.16
2023-03-20T16:53:31.631Z,95789.28
2023-03-20T16:56:03.913Z,95788.72
2023-03-20T16:58:34.475Z,95792.75
2023-03-20T17:01:04.298Z,95786.88
2023-03-20T17:03:36.258Z,95785.72
2023-03-20T17:06:08.409Z,95789.59
2023-03-20T17:08:41.087Z,95787.53
2023-03-20T17:11:14.505Z,95793.53
2023-03-20T17:13:43.194Z,95789.50
2023-03-20T17:16:16.932Z,95789.81
2023-03-20T17:18:46.005Z,95797.38
2023-03-20T17:21:13.657Z,95803.81
2023-03-20T17:23:41.382Z,95805.88
2023-03-20T17:26:13.122Z,95803.88
2023-03-20T17:28:40.560Z,95805.69
2023-03-20T17:31:14.262Z,95807.75
2023-03-20T17:33:42.241Z,95810.38
2023-03-20T17:36:17.974Z,95811.66
2023-03-20T17:38:45.407Z,95812.91
2023-03-20T17:41:16.608Z,95810.19
2023-03-20T17:43:43.857Z,95820.75
2023-03-20T17:46:18.105Z,95812.31
2023-03-20T17:48:45.684Z,95822.88
2023-03-20T17:51:12.965Z,95815.38
2023-03-20T17:53:40.410Z,95810.56
2023-03-20T17:56:12.104Z,95820.50
2023-03-20T17:58:41.609Z,95815.66
2023-03-20T18:01:10.357Z,95815.38
2023-03-20T18:03:37.926Z,95820.50
2023-03-20T18:06:07.907Z,95817.31
2023-03-20T18:08:35.231Z,95816.13
2023-03-20T18:11:03.245Z,95814.59
2023-03-20T18:13:30.430Z,95822.34
2023-03-20T18:15:59.221Z,95818.34
2023-03-20T18:18:26.556Z,95814.50
2023-03-20T18:20:54.204Z,95815.91
2023-03-20T18:23:21.303Z,95810.28
2023-03-20T18:25:48.445Z,95812.59
2023-03-20T18:28:17.782Z,95806.34
2023-03-20T18:30:44.952Z,95814.44
2023-03-20T18:33:13.797Z,95807.16
2023-03-20T18:35:41.137Z,95811.03
2023-03-20T18:38:12.060Z,95810.63
2023-03-20T18:40:39.979Z,95813.72
2023-03-20T18:43:08.015Z,95810.31
2023-03-20T18:45:35.218Z,95813.63
2023-03-20T18:48:03.235Z,95810.63
2023-03-20T18:50:37.070Z,95813.06
2023-03-20T18:53:06.083Z,95812.53
2023-03-20T18:55:34.852Z,95820.84
2023-03-20T18:58:02.942Z,95819.25
2023-03-20T19:00:36.666Z,95823.09
2023-03-20T19:03:11.294Z,95822.88
2023-03-20T19:05:39.991Z,95825.94
2023-03-20T19:08:07.506Z,95819.28
2023-03-20T19:10:37.490Z,95825.63
2023-03-20T19:13:07.651Z,95824.81
2023-03-20T19:15:36.462Z,95818.53
2023-03-20T19:18:05.518Z,95821.19
2023-03-20T19:20:36.994Z,95815.50
2023-03-20T19:23:08.187Z,95813.88
2023-03-20T19:25:36.630Z,95816.34
2023-03-20T19:28:05.667Z,95816.34
2023-03-20T19:30:35.509Z,95816.16
2023-03-20T19:33:03.422Z,95813.56
2023-03-20T19:35:58.955Z,95814.97
2023-03-20T19:38:22.149Z,95811.56
2023-03-20T19:40:51.183Z,95810.81
2023-03-20T19:43:19.244Z,95813.00
2023-03-20T19:45:46.324Z,95817.81
2023-03-20T19:48:16.302Z,95811.97
2023-03-20T19:50:46.697Z,95808.50
2023-03-20T19:53:16.511Z,95806.13
2023-03-20T19:55:45.556Z,95804.34
2023-03-20T19:58:13.224Z,95802.72
2023-03-20T20:00:59.869Z,95799.09
2023-03-20T20:03:27.890Z,95808.63
2023-03-20T20:05:55.626Z,95809.44
2023-03-20T20:08:46.599Z,95802.94
2023-03-20T20:11:11.766Z,95799.94
2023-03-20T20:13:53.441Z,95801.78
2023-03-20T20:16:27.463Z,95799.38
2023-03-20T20:18:54.726Z,95801.56
2023-03-20T20:22:13.335Z,95801.19
2023-03-20T20:24:09.257Z,95798.16
2023-03-20T20:26:41.233Z,95795.94
2023-03-20T20:29:16.780Z,95792.31
2023-03-20T20:31:44.557Z,95790.06
2023-03-20T20:39:49.655Z,95794.94
2023-03-20T20:42:19.139Z,95791.53
2023-03-20T20:44:46.798Z,95788.91
2023-03-20T20:47:15.123Z,95792.72
2023-03-20T20:49:42.666Z,95789.72
2023-03-20T20:52:10.101Z,95798.38
2023-03-20T20:54:37.702Z,95795.53
2023-03-20T20:57:05.003Z,95794.34
2023-03-20T20:59:33.565Z,95790.28
2023-03-20T21:02:00.724Z,95789.91
2023-03-20T21:04:27.843Z,95788.94
2023-03-20T21:07:11.616Z,95781.47
2023-03-20T21:09:40.355Z,95778.19
2023-03-20T21:12:08.948Z,95784.19
2023-03-20T21:14:38.124Z,95783.66
2023-03-20T21:17:06.112Z,95771.41
2023-03-20T21:19:36.702Z,95782.41
2023-03-20T21:22:04.881Z,95780.66
2023-03-20T21:24:34.261Z,95787.25
2023-03-20T21:27:01.948Z,95781.53
2023-03-20T21:29:29.413Z,95777.59
2023-03-20T21:31:58.395Z,95782.34
2023-03-20T21:34:26.187Z,95772.50
2023-03-20T21:36:53.386Z,95777.78
2023-03-20T21:39:20.838Z,95783.00
2023-03-20T21:41:48.005Z,95784.22
2023-03-20T21:44:18.134Z,95784.47
2023-03-20T21:47:50.905Z,95790.31
2023-03-20T21:56:21.940Z,95787.69
2023-03-20T22:15:29.086Z,95782.03
2023-03-20T22:21:13.395Z,95782.81
2023-03-20T22:23:56.379Z,95788.47
2023-03-20T22:29:32.703Z,95787.84
2023-03-20T22:35:12.921Z,95787.88
2023-03-20T22:37:53.341Z,95788.88
2023-03-20T22:43:07.085Z,95796.72
2023-03-20T22:45:42.653Z,95792.69
2023-03-20T22:48:12.347Z,95790.03
2023-03-20T22:50:40.556Z,95791.44
2023-03-20T22:53:07.757Z,95785.94
2023-03-20T22:55:36.378Z,95789.81
2023-03-20T22:58:07.875Z,95783.97
2023-03-20T23:00:36.827Z,95783.38
2023-03-20T23:03:37.597Z,95783.38
2023-03-20T23:05:53.520Z,95775.31
2023-03-20T23:08:23.224Z,95776.72
2023-03-20T23:10:52.595Z,95774.09
2023-03-20T23:13:20.640Z,95772.69
2023-03-20T23:15:48.834Z,95772.63
2023-03-20T23:18:16.617Z,95764.97
2023-03-20T23:20:44.175Z,95763.13
2023-03-20T23:23:11.629Z,95757.69
2023-03-20T23:25:40.235Z,95754.03
2023-03-20T23:28:10.049Z,95761.28
2023-03-20T23:30:45.185Z,95759.47
2023-03-20T23:33:15.748Z,95768.69
2023-03-20T23:35:42.939Z,95761.81
2023-03-20T23:38:10.179Z,95759.97
2023-03-20T23:40:37.642Z,95758.41
2023-03-20T23:43:05.080Z,95757.41
2023-03-20T23:45:33.825Z,95769.31
2023-03-20T23:48:01.152Z,95761.19
2023-03-20T23:50:39.645Z,95761.00
2023-03-20T23:53:20.556Z,95758.22
2023-03-20T23:55:49.994Z,95751.16
2023-03-20T23:58:17.665Z,95748.16
